Time;durP1;ratioP1;P1;durP2;ratioP2;P2;SDS_P1;SDS_P2;PMS_P1;PMS_P2;Temp;Humidity;BMP_temperature;BMP_pressure;BME280_temperature;BME280_humidity;BME280_pressure;Samples;Min_cycle;Max_cycle;Signal;HPM_P1;HPM_P2
2021/06/19 00:00:54;;;;;;;5.75;3.25;;;;;;;18.34;100.00;100875.06;1712717;83;21727;-72
2021/06/19 00:03:21;;;;;;;7.40;3.60;;;;;;;18.35;100.00;100868.81;1712657;83;21041;-72
2021/06/19 00:05:47;;;;;;;7.10;3.75;;;;;;;18.37;100.00;100875.25;1712561;83;21109;-70
2021/06/19 00:08:14;;;;;;;9.00;3.72;;;;;;;18.35;100.00;100872.75;1712719;83;21494;-70
2021/06/19 00:10:41;;;;;;;8.58;3.37;;;;;;;18.36;100.00;100869.16;1712801;83;20849;-70
2021/06/19 00:13:09;;;;;;;7.30;3.60;;;;;;;18.37;100.00;100863.42;1712779;83;21055;-73
2021/06/19 00:15:37;;;;;;;6.00;3.42;;;;;;;18.38;100.00;100862.42;1709962;82;20944;-74
2021/06/19 00:18:05;;;;;;;5.30;3.25;;;;;;;18.38;100.00;100861.11;1702866;84;21557;-72
2021/06/19 00:20:31;;;;;;;8.90;3.95;;;;;;;18.40;100.00;100858.70;1703017;84;20996;-71
2021/06/19 00:22:58;;;;;;;5.03;3.10;;;;;;;18.41;100.00;100859.02;1710381;83;21008;-74
2021/06/19 00:25:26;;;;;;;5.80;3.35;;;;;;;18.44;100.00;100857.41;1710138;83;21060;-68
2021/06/19 00:27:53;;;;;;;6.58;2.95;;;;;;;18.45;100.00;100862.19;1703794;83;21054;-72
2021/06/19 00:30:21;;;;;;;7.35;3.35;;;;;;;18.46;100.00;100857.28;1702761;84;21118;-76
2021/06/19 00:32:49;;;;;;;4.08;2.77;;;;;;;18.46;100.00;100856.80;1704163;83;20987;-76
2021/06/19 00:35:15;;;;;;;4.00;2.62;;;;;;;18.47;100.00;100861.58;1702849;84;21007;-71
2021/06/19 00:37:42;;;;;;;8.60;3.75;;;;;;;18.48;100.00;100855.33;1702733;83;21042;-75
2021/06/19 00:40:11;;;;;;;5.30;3.30;;;;;;;18.49;100.00;100854.36;1702702;84;21023;-71
2021/06/19 00:42:38;;;;;;;5.28;3.00;;;;;;;18.51;100.00;100855.58;1709893;83;21122;-75
2021/06/19 00:45:08;;;;;;;7.25;3.37;;;;;;;18.51;100.00;100855.58;1703388;83;21696;-72
2021/06/19 00:47:40;;;;;;;8.00;3.35;;;;;;;18.54;100.00;100857.91;1702816;84;21019;-71
2021/06/19 00:50:08;;;;;;;10.55;3.83;;;;;;;18.54;100.00;100854.77;1709882;83;21030;-72
2021/06/19 00:52:35;;;;;;;7.65;3.55;;;;;;;18.56;100.00;100852.00;1704627;82;21055;-70
2021/06/19 00:55:03;;;;;;;7.08;3.65;;;;;;;18.55;100.00;100848.55;1702985;83;21948;-72
2021/06/19 00:57:32;;;;;;;7.47;3.65;;;;;;;18.53;100.00;100852.30;1709940;83;20888;-72
2021/06/19 00:59:59;;;;;;;5.35;3.40;;;;;;;18.52;100.00;100848.00;1709910;84;20996;-75
2021/06/19 01:02:26;;;;;;;8.98;3.80;;;;;;;18.51;100.00;100850.31;1708980;84;20908;-75
2021/06/19 01:04:53;;;;;;;6.83;3.30;;;;;;;18.48;100.00;100855.33;1709549;83;21038;-72
2021/06/19 01:07:21;;;;;;;7.05;3.50;;;;;;;18.44;100.00;100850.84;1710353;83;21974;-74
2021/06/19 01:09:48;;;;;;;6.75;3.20;;;;;;;18.39;100.00;100853.58;1703410;83;20952;-83
2021/06/19 01:12:25;;;;;;;7.42;2.80;;;;;;;18.32;100.00;100857.28;1710228;83;20996;-76
2021/06/19 01:14:55;;;;;;;5.30;2.60;;;;;;;18.21;100.00;100853.55;1710519;83;20967;-74
2021/06/19 01:17:22;;;;;;;6.70;2.60;;;;;;;18.12;100.00;100850.48;1703217;83;21059;-74
2021/06/19 01:20:15;;;;;;;4.72;2.50;;;;;;;18.10;100.00;100853.72;1702962;84;21150;-71
2021/06/19 01:22:47;;;;;;;5.53;2.70;;;;;;;18.07;100.00;100847.92;1702916;84;20987;-71
2021/06/19 01:25:23;;;;;;;5.20;2.70;;;;;;;18.06;100.00;100849.72;1703083;84;20940;-76
2021/06/19 01:27:54;;;;;;;5.35;2.40;;;;;;;18.05;100.00;100859.91;1702892;83;21487;-75
2021/06/19 01:30:22;;;;;;;3.87;2.30;;;;;;;18.06;100.00;100852.86;1703035;84;21057;-75
2021/06/19 01:32:50;;;;;;;6.08;2.98;;;;;;;18.04;100.00;100862.66;1710054;83;21804;-78
2021/06/19 01:35:17;;;;;;;7.92;4.15;;;;;;;18.02;100.00;100852.31;1710028;84;20999;-74
2021/06/19 01:37:51;;;;;;;5.80;3.10;;;;;;;18.01;100.00;100855.91;1705589;83;20955;-76
2021/06/19 01:40:22;;;;;;;5.33;3.35;;;;;;;18.01;100.00;100855.07;1701796;83;21515;-75
2021/06/19 01:42:50;;;;;;;6.85;3.12;;;;;;;18.02;100.00;100858.88;1703242;84;21004;-72
2021/06/19 01:45:26;;;;;;;6.55;3.62;;;;;;;18.04;100.00;100855.61;1702928;84;21127;-73
2021/06/19 01:47:52;;;;;;;7.28;4.75;;;;;;;18.05;100.00;100857.76;1703638;83;20857;-73
2021/06/19 01:50:23;;;;;;;9.30;3.87;;;;;;;18.06;100.00;100859.42;1709656;83;21569;-75
2021/06/19 01:52:51;;;;;;;13.30;4.40;;;;;;;18.06;100.00;100860.73;1703785;83;21003;-70
2021/06/19 01:55:18;;;;;;;9.18;4.47;;;;;;;18.06;100.00;100863.36;1702826;84;20897;-72
2021/06/19 01:57:46;;;;;;;8.50;4.03;;;;;;;18.04;100.00;100858.72;1710026;83;21978;-72
2021/06/19 02:00:17;;;;;;;7.97;4.17;;;;;;;18.03;100.00;100868.39;1702793;84;21059;-73
2021/06/19 02:02:44;;;;;;;9.80;3.95;;;;;;;18.04;100.00;100865.28;1703153;84;21043;-77
2021/06/19 02:05:12;;;;;;;9.55;4.35;;;;;;;18.06;100.00;100868.61;1703158;84;20908;-75
2021/06/19 02:07:50;;;;;;;6.97;3.55;;;;;;;18.05;100.00;100866.47;1709914;83;21019;-75
2021/06/19 02:10:19;;;;;;;6.75;3.33;;;;;;;18.07;100.00;100868.94;1680962;83;22717;-74
2021/06/19 02:12:46;;;;;;;7.03;3.60;;;;;;;18.07;100.00;100872.39;1709957;83;20955;-75
2021/06/19 02:15:16;;;;;;;10.45;3.40;;;;;;;18.07;100.00;100875.50;1702543;84;21578;-73
2021/06/19 02:17:42;;;;;;;4.67;2.85;;;;;;;18.07;100.00;100873.70;1710226;83;20956;-72
2021/06/19 02:20:11;;;;;;;6.33;3.37;;;;;;;18.09;100.00;100880.14;1712773;83;21035;-74
2021/06/19 02:22:38;;;;;;;3.72;2.25;;;;;;;18.10;100.00;100883.09;1712667;83;21478;-74
2021/06/19 02:25:08;;;;;;;3.90;2.52;;;;;;;18.09;100.00;100881.45;1712666;83;21018;-76
2021/06/19 02:27:34;;;;;;;3.85;2.45;;;;;;;18.10;100.00;100882.61;1712798;83;21026;-78
2021/06/19 02:30:01;;;;;;;5.58;2.65;;;;;;;18.08;100.00;100881.94;1712777;83;20908;-76
2021/06/19 02:32:28;;;;;;;4.00;2.33;;;;;;;18.07;100.00;100885.52;1712900;83;21561;-72
2021/06/19 02:34:55;;;;;;;3.50;2.55;;;;;;;18.07;100.00;100888.63;1712835;83;21155;-72
2021/06/19 02:37:22;;;;;;;5.00;2.87;;;;;;;18.07;100.00;100890.78;1712594;83;20956;-72
2021/06/19 02:39:48;;;;;;;4.72;3.17;;;;;;;18.06;100.00;100889.11;1712803;83;20999;-70
2021/06/19 02:42:15;;;;;;;5.17;2.70;;;;;;;18.07;100.00;100895.20;1712664;83;21015;-73
2021/06/19 02:44:44;;;;;;;5.28;2.90;;;;;;;18.08;100.00;100894.23;1712512;83;21160;-74
2021/06/19 02:47:11;;;;;;;3.62;2.55;;;;;;;18.10;100.00;100897.05;1712717;83;21080;-74
2021/06/19 02:49:38;;;;;;;3.98;2.65;;;;;;;18.12;100.00;100892.98;1712615;82;20892;-73
2021/06/19 02:52:05;;;;;;;5.28;3.10;;;;;;;18.12;100.00;100900.87;1712708;82;20964;-77
2021/06/19 02:54:33;;;;;;;7.87;3.10;;;;;;;18.10;100.00;100900.99;1712690;83;20948;-75
2021/06/19 02:56:59;;;;;;;5.53;3.33;;;;;;;18.08;100.00;100904.74;1712508;83;20999;-76
2021/06/19 02:59:28;;;;;;;7.65;3.25;;;;;;;18.07;100.00;100909.16;1712671;83;21117;-72
2021/06/19 03:01:54;;;;;;;7.25;3.62;;;;;;;18.08;100.00;100912.14;1712638;82;20980;-74
2021/06/19 03:04:21;;;;;;;11.35;4.92;;;;;;;18.07;100.00;100914.41;1712787;83;20900;-76
2021/06/19 03:06:48;;;;;;;5.10;3.72;;;;;;;18.06;100.00;100912.75;1712688;83;21030;-75
2021/06/19 03:09:14;;;;;;;7.95;5.60;;;;;;;18.05;100.00;100918.16;1712736;82;21083;-76
2021/06/19 03:11:41;;;;;;;9.38;4.37;;;;;;;18.02;100.00;100917.97;1712806;83;21157;-75
2021/06/19 03:14:08;;;;;;;11.20;8.45;;;;;;;18.03;100.00;100918.28;1712554;83;20939;-76
2021/06/19 03:16:35;;;;;;;7.87;6.78;;;;;;;18.02;100.00;100926.33;1712239;83;21612;-69
2021/06/19 03:19:05;;;;;;;6.33;4.67;;;;;;;18.03;100.00;100927.99;1712586;83;20956;-75
2021/06/19 03:21:33;;;;;;;10.03;4.70;;;;;;;18.03;100.00;100934.56;1712708;83;20963;-73
2021/06/19 03:24:00;;;;;;;7.90;5.17;;;;;;;18.03;100.00;100934.56;1712667;83;21146;-72
2021/06/19 03:26:27;;;;;;;12.95;5.10;;;;;;;18.04;100.00;100938.34;1712813;82;21006;-73
2021/06/19 03:28:54;;;;;;;12.98;4.85;;;;;;;18.03;100.00;100927.99;1712678;83;20920;-74
2021/06/19 03:31:20;;;;;;;9.45;4.10;;;;;;;18.00;100.00;100932.22;1712720;83;21537;-77
2021/06/19 03:33:47;;;;;;;9.38;4.40;;;;;;;18.00;100.00;100938.27;1712502;83;21073;-75
2021/06/19 03:36:14;;;;;;;10.28;4.72;;;;;;;17.98;100.00;100941.05;1712631;83;21070;-75
2021/06/19 03:38:41;;;;;;;10.32;5.45;;;;;;;17.95;100.00;100941.34;1712804;83;20935;-73
2021/06/19 03:41:08;;;;;;;11.33;4.85;;;;;;;17.95;100.00;100941.82;1712762;82;21604;-70
2021/06/19 03:43:36;;;;;;;7.75;4.10;;;;;;;17.96;100.00;100940.34;1712668;83;21605;-73
2021/06/19 03:46:02;;;;;;;8.88;4.12;;;;;;;17.97;100.00;100942.49;1712775;83;20923;-78
2021/06/19 03:48:29;;;;;;;8.65;4.10;;;;;;;18.00;100.00;100951.91;1712604;83;21102;-76
2021/06/19 03:50:55;;;;;;;9.78;4.55;;;;;;;18.00;100.00;100951.91;1712998;83;20979;-75
2021/06/19 03:53:21;;;;;;;6.60;3.65;;;;;;;18.02;100.00;100953.42;1712874;83;20912;-73
2021/06/19 03:55:48;;;;;;;5.92;4.12;;;;;;;18.03;100.00;100952.94;1712648;83;20959;-75
2021/06/19 03:58:16;;;;;;;11.73;3.90;;;;;;;18.04;100.00;100963.28;1712693;82;20993;-76
2021/06/19 04:00:43;;;;;;;6.87;4.03;;;;;;;18.06;100.00;100958.70;1712416;82;21140;-74
2021/06/19 04:03:10;;;;;;;7.28;4.22;;;;;;;18.08;100.00;100958.58;1712587;83;20932;-75
2021/06/19 04:05:36;;;;;;;7.70;3.65;;;;;;;18.09;100.00;100965.50;1712872;83;20959;-74
2021/06/19 04:08:03;;;;;;;6.42;4.20;;;;;;;18.13;100.00;100974.73;1712589;83;20919;-72
2021/06/19 04:10:31;;;;;;;10.90;4.60;;;;;;;18.17;100.00;100962.98;1712844;82;21435;-73
2021/06/19 04:12:58;;;;;;;7.28;4.22;;;;;;;18.22;100.00;100981.27;1712791;83;21084;-75
2021/06/19 04:15:24;;;;;;;6.03;3.50;;;;;;;18.27;100.00;100974.29;1712712;83;20983;-75
2021/06/19 04:17:51;;;;;;;9.55;4.25;;;;;;;18.30;100.00;100981.41;1724009;82;21518;-79
2021/06/19 04:20:18;;;;;;;7.80;4.12;;;;;;;18.32;100.00;100982.08;1733258;82;21023;-73
2021/06/19 04:22:45;;;;;;;5.40;3.47;;;;;;;18.34;100.00;100980.63;1733481;82;21125;-75
2021/06/19 04:25:13;;;;;;;9.43;3.98;;;;;;;18.34;100.00;100980.63;1733271;82;21570;-73
2021/06/19 04:27:47;;;;;;;5.42;3.98;;;;;;;18.34;100.00;100986.72;1733373;82;20939;-73
2021/06/19 04:30:15;;;;;;;7.55;3.62;;;;;;;18.34;100.00;100990.66;1733506;82;21501;-72
2021/06/19 04:32:41;;;;;;;9.68;3.40;;;;;;;18.35;100.00;100989.67;1733363;82;20946;-77
2021/06/19 04:35:12;;;;;;;4.92;3.50;;;;;;;18.39;100.00;100994.16;1733249;82;21019;-71
2021/06/19 04:37:39;;;;;;;10.25;3.90;;;;;;;18.41;100.00;100994.35;1733476;82;21073;-76
2021/06/19 04:40:29;;;;;;;7.97;3.50;;;;;;;18.45;100.00;100994.90;1733768;82;20963;-76
2021/06/19 04:43:03;;;;;;;8.83;4.22;;;;;;;18.45;100.00;100997.52;1733237;82;20911;-77
2021/06/19 04:45:26;;;;;;;8.53;4.10;;;;;;;18.45;100.00;101003.61;1732663;82;21541;-75
2021/06/19 04:47:53;;;;;;;7.58;3.40;;;;;;;18.47;100.00;101007.43;1733879;82;20930;-73
2021/06/19 04:50:20;;;;;;;5.55;3.00;;;;;;;18.49;100.00;101002.39;1733536;82;21159;-76
2021/06/19 04:52:47;;;;;;;5.58;3.25;;;;;;;18.49;100.00;101014.67;1733374;82;20947;-73
2021/06/19 04:55:18;;;;;;;6.53;3.42;;;;;;;18.50;100.00;101017.69;1734097;82;21470;-79
2021/06/19 04:57:54;;;;;;;4.87;2.90;;;;;;;18.52;100.00;101021.47;1733684;82;21058;-80
2021/06/19 05:00:21;;;;;;;4.15;3.67;;;;;;;18.52;100.00;101022.78;1733872;82;21222;-76
2021/06/19 05:02:47;;;;;;;3.62;3.20;;;;;;;18.51;100.00;101024.58;1733944;82;21046;-73
2021/06/19 05:05:14;;;;;;;4.95;3.30;;;;;;;18.54;100.00;101024.29;1733300;82;20856;-75
2021/06/19 05:07:42;;;;;;;6.25;3.10;;;;;;;18.55;100.00;101035.16;1733401;82;20962;-76
2021/06/19 05:10:11;;;;;;;7.60;3.25;;;;;;;18.58;100.00;101037.97;1733496;82;20919;-75
2021/06/19 05:12:44;;;;;;;9.13;3.37;;;;;;;18.60;100.00;101046.08;1733664;82;20989;-80
2021/06/19 05:15:16;;;;;;;5.60;3.27;;;;;;;18.60;100.00;101045.25;1733503;82;21106;-74
2021/06/19 05:17:42;;;;;;;5.70;2.85;;;;;;;18.63;100.00;101047.11;1722950;82;20936;-78
2021/06/19 05:20:10;;;;;;;4.95;3.17;;;;;;;18.67;100.00;101043.68;1710511;83;20963;-76
2021/06/19 05:22:37;;;;;;;6.35;3.20;;;;;;;18.72;100.00;101051.98;1710090;83;21034;-73
2021/06/19 05:25:05;;;;;;;3.45;2.40;;;;;;;18.75;100.00;101053.84;1710288;83;20935;-73
2021/06/19 05:27:32;;;;;;;7.28;3.80;;;;;;;18.84;100.00;101058.70;1703532;83;21124;-71
2021/06/19 05:30:00;;;;;;;5.40;3.33;;;;;;;18.95;100.00;101059.34;1710471;83;20928;-75
2021/06/19 05:32:27;;;;;;;5.47;3.45;;;;;;;19.08;100.00;101067.41;1710419;84;20904;-72
2021/06/19 05:34:53;;;;;;;5.35;2.67;;;;;;;19.20;100.00;101070.18;1703284;84;21507;-72
2021/06/19 05:37:20;;;;;;;6.83;3.50;;;;;;;19.28;100.00;101075.52;1710465;83;21053;-71
2021/06/19 05:39:47;;;;;;;8.10;2.92;;;;;;;19.31;100.00;101073.91;1710035;83;21481;-73
2021/06/19 05:42:13;;;;;;;6.92;3.17;;;;;;;19.32;100.00;101079.52;1709526;84;21553;-72
2021/06/19 05:44:40;;;;;;;3.72;3.00;;;;;;;19.32;100.00;101077.73;1710281;83;21024;-72
2021/06/19 05:47:08;;;;;;;5.78;2.75;;;;;;;19.32;100.00;101082.98;1709757;83;21058;-73
2021/06/19 05:49:35;;;;;;;5.42;3.20;;;;;;;19.35;100.00;101083.17;1709851;84;20971;-74
2021/06/19 05:52:03;;;;;;;8.15;3.08;;;;;;;19.39;100.00;101083.23;1710084;83;21500;-73
2021/06/19 05:54:30;;;;;;;4.78;2.85;;;;;;;19.43;100.00;101078.85;1709977;83;20940;-72
2021/06/19 05:56:57;;;;;;;4.90;2.30;;;;;;;19.50;100.00;101085.19;1702816;84;20983;-72
2021/06/19 05:59:23;;;;;;;7.78;3.05;;;;;;;19.56;100.00;101096.12;1702955;84;21052;-72
2021/06/19 06:01:50;;;;;;;5.95;2.45;;;;;;;19.61;100.00;101100.44;1702835;84;20995;-75
2021/06/19 06:04:16;;;;;;;6.62;2.85;;;;;;;19.64;100.00;101102.29;1709891;83;21949;-73
2021/06/19 06:06:43;;;;;;;5.37;2.58;;;;;;;19.72;100.00;101107.63;1709670;83;20892;-74
2021/06/19 06:09:11;;;;;;;4.55;2.58;;;;;;;19.80;100.00;101102.94;1702579;84;20896;-82
2021/06/19 06:11:39;;;;;;;6.90;2.75;;;;;;;19.90;100.00;101112.44;1709951;83;21488;-73
2021/06/19 06:14:08;;;;;;;6.40;2.77;;;;;;;19.98;100.00;101115.13;1702895;83;20984;-76
2021/06/19 06:16:35;;;;;;;5.28;2.50;;;;;;;20.06;100.00;101113.07;1710148;83;21121;-72
2021/06/19 06:19:02;;;;;;;5.85;2.62;;;;;;;20.15;100.00;101117.91;1710091;83;21006;-71
2021/06/19 06:21:28;;;;;;;5.70;3.00;;;;;;;20.21;100.00;101123.41;1703027;83;21558;-79
2021/06/19 06:23:57;;;;;;;8.45;2.72;;;;;;;20.29;100.00;101122.69;1710069;83;21581;-81
2021/06/19 06:26:24;;;;;;;4.83;2.25;;;;;;;20.31;100.00;101126.82;1710208;83;20920;-80
2021/06/19 06:28:51;;;;;;;5.90;2.65;;;;;;;20.32;100.00;101122.38;1709987;83;21194;-77
2021/06/19 06:31:18;;;;;;;7.00;2.55;;;;;;;20.37;100.00;101125.37;1709911;84;20979;-78
2021/06/19 06:33:45;;;;;;;6.87;3.65;;;;;;;20.38;100.00;101127.04;1702679;84;21106;-74
2021/06/19 06:36:11;;;;;;;7.03;2.83;;;;;;;20.39;100.00;101130.82;1702944;84;20968;-76
2021/06/19 06:38:40;;;;;;;5.62;2.70;;;;;;;20.42;100.00;101130.52;1702794;83;21546;-78
2021/06/19 06:41:06;;;;;;;5.87;2.60;;;;;;;20.51;100.00;101140.17;1709886;83;21123;-74
2021/06/19 06:43:33;;;;;;;5.22;2.55;;;;;;;20.59;100.00;101134.11;1710031;83;21463;-79
2021/06/19 06:46:01;;;;;;;6.45;2.70;;;;;;;20.67;100.00;101139.94;1710069;83;20969;-72
2021/06/19 06:48:29;;;;;;;7.62;2.67;;;;;;;20.76;100.00;101148.23;1709775;83;20916;-79
2021/06/19 06:50:57;;;;;;;6.55;2.65;;;;;;;20.80;100.00;101149.59;1702932;83;21624;-72
2021/06/19 06:53:24;;;;;;;4.85;2.60;;;;;;;20.73;100.00;101145.91;1703034;84;21525;-75
2021/06/19 06:55:50;;;;;;;6.00;2.70;;;;;;;20.73;100.00;101145.91;1709796;83;20892;-78
2021/06/19 06:58:17;;;;;;;8.23;2.55;;;;;;;20.78;100.00;101145.77;1710716;83;20996;-74
2021/06/19 07:00:43;;;;;;;4.83;2.40;;;;;;;20.83;100.00;101147.47;1709906;83;21086;-75
2021/06/19 07:03:10;;;;;;;6.50;2.37;;;;;;;20.90;100.00;101146.36;1702023;84;21510;-80
2021/06/19 07:05:37;;;;;;;6.25;2.52;;;;;;;20.91;100.00;101154.59;1702755;84;21454;-77
2021/06/19 07:08:04;;;;;;;6.97;2.37;;;;;;;20.95;100.00;101153.30;1702691;84;20944;-71
2021/06/19 07:10:32;;;;;;;9.55;2.40;;;;;;;21.06;100.00;101149.06;1702757;83;21503;-71
2021/06/19 07:12:59;;;;;;;3.83;2.10;;;;;;;21.20;100.00;101155.12;1710245;83;21018;-73
2021/06/19 07:15:26;;;;;;;7.08;2.17;;;;;;;21.28;100.00;101155.17;1709853;84;21584;-73
2021/06/19 07:17:52;;;;;;;7.62;2.75;;;;;;;21.28;100.00;101148.57;1710312;83;21115;-71
2021/06/19 07:20:19;;;;;;;5.78;2.12;;;;;;;21.26;100.00;101161.57;1712966;83;21003;-70
2021/06/19 07:22:48;;;;;;;8.60;2.80;;;;;;;21.23;100.00;101164.04;1712748;83;21090;-80
2021/06/19 07:25:16;;;;;;;5.60;2.65;;;;;;;21.21;100.00;101156.78;1712661;82;20990;-76
2021/06/19 07:27:43;;;;;;;6.40;2.67;;;;;;;21.21;100.00;101167.83;1712433;83;21008;-69
2021/06/19 07:30:12;;;;;;;7.10;2.50;;;;;;;21.18;100.00;101166.34;1712535;82;21136;-72
2021/06/19 07:32:38;;;;;;;4.87;2.50;;;;;;;21.17;100.00;101162.03;1712539;83;20955;-70
2021/06/19 07:35:09;;;;;;;5.12;2.47;;;;;;;21.22;100.00;101166.85;1712731;83;20986;-73
2021/06/19 07:37:35;;;;;;;6.05;2.33;;;;;;;21.25;100.00;101162.58;1712762;83;20991;-73
2021/06/19 07:40:03;;;;;;;8.18;2.50;;;;;;;21.21;100.00;101162.06;1712778;83;21015;-74
2021/06/19 07:42:31;;;;;;;5.78;2.40;;;;;;;21.08;100.00;101170.86;1712836;83;21023;-75
2021/06/19 07:44:58;;;;;;;5.33;3.20;;;;;;;20.90;100.00;101162.99;1712707;82;21510;-72
2021/06/19 07:47:24;;;;;;;4.55;2.58;;;;;;;20.74;100.00;101166.04;1712602;83;20984;-72
2021/06/19 07:49:52;;;;;;;6.87;3.27;;;;;;;20.63;100.00;101168.42;1712630;83;20952;-72
2021/06/19 07:52:19;;;;;;;5.97;2.80;;;;;;;20.57;100.00;101171.68;1712661;82;20939;-73
2021/06/19 07:54:45;;;;;;;5.95;2.90;;;;;;;20.53;100.00;101175.59;1712739;83;21135;-70
2021/06/19 07:57:12;;;;;;;6.97;2.77;;;;;;;20.52;100.00;101178.72;1712547;83;21046;-69
2021/06/19 07:59:39;;;;;;;9.48;3.12;;;;;;;20.55;100.00;101177.58;1712706;83;20987;-69
2021/06/19 08:02:06;;;;;;;5.70;2.92;;;;;;;20.57;100.00;101187.50;1712858;83;21118;-72
2021/06/19 08:04:36;;;;;;;7.47;2.85;;;;;;;20.56;100.00;101187.98;1712626;83;20952;-76
2021/06/19 08:07:03;;;;;;;7.45;3.20;;;;;;;20.53;100.00;101187.46;1712687;83;21128;-75
2021/06/19 08:09:31;;;;;;;7.40;3.12;;;;;;;20.50;100.00;101193.04;1712669;83;20884;-77
2021/06/19 08:11:58;;;;;;;15.03;3.87;;;;;;;20.38;100.00;101194.27;1712517;83;21000;-72
2021/06/19 08:14:25;;;;;;;5.97;3.25;;;;;;;20.18;100.00;101198.81;1712696;83;21507;-77
2021/06/19 08:16:53;;;;;;;6.90;3.45;;;;;;;19.99;100.00;101202.90;1712697;83;21003;-82
2021/06/19 08:19:20;;;;;;;5.55;3.65;;;;;;;19.83;100.00;101204.88;1712128;83;21164;-79
2021/06/19 08:21:47;;;;;;;9.88;4.58;;;;;;;19.69;100.00;101204.03;1712783;83;21660;-77
2021/06/19 08:24:14;;;;;;;7.25;4.12;;;;;;;19.59;100.00;101192.75;1712564;83;20943;-75
2021/06/19 08:26:41;;;;;;;9.38;4.22;;;;;;;19.55;100.00;101207.17;1712589;82;20927;-75
2021/06/19 08:29:08;;;;;;;11.60;4.62;;;;;;;19.47;100.00;101207.05;1712620;83;21047;-82
2021/06/19 08:31:37;;;;;;;8.15;4.60;;;;;;;19.38;100.00;101206.09;1712652;83;21156;-84
2021/06/19 08:34:05;;;;;;;6.67;3.72;;;;;;;19.23;100.00;101193.55;1712719;83;20896;-82
2021/06/19 08:36:32;;;;;;;7.10;3.60;;;;;;;19.10;100.00;101210.14;1712600;83;20939;-74
2021/06/19 08:38:59;;;;;;;7.67;3.77;;;;;;;18.99;100.00;101211.95;1712684;83;20946;-75
2021/06/19 08:41:27;;;;;;;7.85;4.20;;;;;;;18.98;100.00;101216.06;1712701;83;21450;-77
2021/06/19 08:43:54;;;;;;;6.15;3.58;;;;;;;19.00;100.00;101214.94;1712629;83;21561;-74
2021/06/19 08:46:22;;;;;;;6.22;3.77;;;;;;;18.99;100.00;101222.96;1712694;82;21628;-73
2021/06/19 08:48:52;;;;;;;6.78;4.00;;;;;;;19.00;100.00;101222.00;1712749;83;21593;-77
2021/06/19 08:51:20;;;;;;;6.05;3.87;;;;;;;19.00;100.00;101224.15;1712538;83;20999;-80
2021/06/19 08:53:49;;;;;;;6.42;3.77;;;;;;;18.97;100.00;101228.38;1712629;83;21018;-76
2021/06/19 08:56:20;;;;;;;10.78;3.50;;;;;;;18.95;100.00;101233.44;1712580;83;21181;-73
2021/06/19 08:58:46;;;;;;;4.53;3.20;;;;;;;18.91;100.00;101233.37;1712621;83;20982;-75
2021/06/19 09:01:14;;;;;;;4.47;2.83;;;;;;;18.83;100.00;101238.01;1712631;82;20986;-74
2021/06/19 09:03:41;;;;;;;4.65;2.98;;;;;;;18.76;100.00;101238.22;1712702;83;21521;-74
2021/06/19 09:06:26;;;;;;;6.50;3.10;;;;;;;18.70;100.00;101244.03;1712980;83;20931;-73
2021/06/19 09:09:14;;;;;;;5.25;3.22;;;;;;;18.68;100.00;101246.47;1713248;83;21092;-73
2021/06/19 09:11:43;;;;;;;4.92;3.55;;;;;;;18.67;100.00;101240.84;1713040;83;20898;-72
2021/06/19 09:14:25;;;;;;;6.42;3.58;;;;;;;18.69;100.00;101245.02;1712468;83;20986;-74
2021/06/19 09:17:04;;;;;;;6.97;3.40;;;;;;;18.76;100.00;101246.10;1712627;83;20999;-72
2021/06/19 09:19:39;;;;;;;6.12;3.60;;;;;;;18.84;100.00;101250.20;1723871;81;20970;-72
2021/06/19 09:22:21;;;;;;;5.85;3.35;;;;;;;18.94;100.00;101248.88;1733308;82;21803;-71
2021/06/19 09:24:55;;;;;;;7.92;3.50;;;;;;;19.02;100.00;101251.13;1733333;82;21005;-72
2021/06/19 09:27:44;;;;;;;7.47;3.85;;;;;;;19.14;100.00;101254.93;1733200;82;21520;-72
2021/06/19 09:30:22;;;;;;;7.35;4.05;;;;;;;19.24;100.00;101250.48;1733131;82;20943;-75
2021/06/19 09:32:55;;;;;;;9.05;3.37;;;;;;;19.33;100.00;101253.56;1733531;82;21104;-72
2021/06/19 09:35:29;;;;;;;8.45;3.85;;;;;;;19.37;100.00;101256.23;1733305;82;21807;-71
2021/06/19 09:38:12;;;;;;;6.92;3.70;;;;;;;19.46;100.00;101252.28;1733429;82;21036;-71
2021/06/19 09:40:45;;;;;;;6.15;3.45;;;;;;;19.58;100.00;101256.06;1733386;82;20990;-71
2021/06/19 09:43:27;;;;;;;6.62;3.80;;;;;;;19.68;100.00;101256.38;1732979;82;20943;-77
2021/06/19 09:46:09;;;;;;;7.60;3.72;;;;;;;19.81;100.00;101257.36;1733378;82;20993;-72
2021/06/19 09:48:40;;;;;;;8.43;3.72;;;;;;;19.88;100.00;101258.41;1733666;82;21126;-70
2021/06/19 09:51:22;;;;;;;5.75;3.47;;;;;;;19.96;100.00;101254.57;1733264;82;37419;-71
2021/06/19 09:53:53;;;;;;;11.65;4.50;;;;;;;20.00;100.00;101259.89;1733827;82;21061;-71
2021/06/19 09:56:22;;;;;;;;;;;;;;;20.00;100.00;101257.27;1735411;82;21012;-70
2021/06/19 09:58:53;;;;;;;6.15;3.60;;;;;;;19.98;100.00;101253.44;1733259;82;20162;-76
2021/06/19 10:01:36;;;;;;;6.62;3.92;;;;;;;19.98;100.00;101251.29;1733780;82;21131;-76
2021/06/19 10:04:04;;;;;;;6.72;3.67;;;;;;;19.93;100.00;101260.14;1706338;82;21010;-72
2021/06/19 10:06:31;;;;;;;6.58;4.00;;;;;;;19.91;100.00;101268.17;1733292;82;20986;-74
2021/06/19 10:08:59;;;;;;;7.10;4.22;;;;;;;19.89;100.00;101263.55;1733321;82;21709;-73
2021/06/19 10:11:27;;;;;;;9.23;4.45;;;;;;;19.89;100.00;101263.55;1733453;82;21078;-76
2021/06/19 10:13:56;;;;;;;8.80;4.17;;;;;;;19.95;100.00;101267.39;1733546;82;21161;-74
2021/06/19 10:16:23;;;;;;;5.40;4.40;;;;;;;20.03;100.00;101263.55;1733364;82;21536;-76
2021/06/19 10:18:52;;;;;;;5.58;4.47;;;;;;;20.11;100.00;101263.63;1730056;82;21671;-77
2021/06/19 10:21:21;;;;;;;8.85;4.90;;;;;;;20.17;100.00;101264.83;1712601;82;21576;-72
2021/06/19 10:23:49;;;;;;;10.90;5.42;;;;;;;20.18;100.00;101259.42;1712873;83;21054;-71
2021/06/19 10:26:21;;;;;;;9.48;4.92;;;;;;;20.14;100.00;101255.42;1712730;83;21131;-73
2021/06/19 10:28:47;;;;;;;13.05;5.25;;;;;;;20.01;100.00;101251.83;1712744;82;20983;-77
2021/06/19 10:31:17;;;;;;;6.33;4.70;;;;;;;19.90;100.00;101260.43;1712889;83;20943;-75
2021/06/19 10:33:43;;;;;;;8.65;4.72;;;;;;;19.82;100.00;101255.88;1712547;82;21054;-78
2021/06/19 10:36:11;;;;;;;8.00;5.90;;;;;;;19.80;100.00;101255.69;1712699;83;20908;-74
2021/06/19 10:38:55;;;;;;;7.37;4.75;;;;;;;19.79;100.00;101257.97;1712534;83;21086;-72
2021/06/19 10:41:26;;;;;;;9.28;6.08;;;;;;;19.82;100.00;101253.73;1712634;83;21499;-73
2021/06/19 10:43:52;;;;;;;8.33;5.58;;;;;;;19.85;100.00;101252.95;1711280;83;20952;-72
2021/06/19 10:46:37;;;;;;;8.53;5.62;;;;;;;19.90;100.00;101250.73;1712909;82;21469;-72
2021/06/19 10:49:26;;;;;;;8.00;5.80;;;;;;;20.00;100.00;101251.51;1712906;83;20944;-73
2021/06/19 10:52:28;;;;;;;8.45;5.60;;;;;;;20.09;100.00;101253.73;1712814;83;21166;-74
2021/06/19 10:55:14;;;;;;;7.30;5.60;;;;;;;20.16;100.00;101252.17;1712709;83;20991;-73
2021/06/19 10:57:50;;;;;;;6.15;4.83;;;;;;;20.21;100.00;101255.66;1708731;83;20987;-73
2021/06/19 11:00:40;;;;;;;10.85;5.17;;;;;;;20.29;100.00;101254.48;1712738;82;20924;-73
2021/06/19 11:03:07;;;;;;;7.17;4.95;;;;;;;20.45;100.00;101258.59;1712608;82;20993;-74
2021/06/19 11:05:52;;;;;;;4.92;4.42;;;;;;;20.57;100.00;101252.11;1712787;83;21732;-73
2021/06/19 11:08:19;;;;;;;6.47;4.10;;;;;;;20.64;100.00;101253.16;1712557;83;20968;-73
2021/06/19 11:10:51;;;;;;;7.62;4.05;;;;;;;20.71;100.00;101248.11;1712633;83;21007;-75
2021/06/19 11:13:39;;;;;;;6.25;4.33;;;;;;;20.74;100.00;101253.08;1712654;83;21024;-73
2021/06/19 11:16:35;;;;;;;6.17;3.65;;;;;;;20.80;100.00;101249.83;1712761;83;20980;-75
2021/06/19 11:19:01;;;;;;;4.90;4.05;;;;;;;20.86;100.00;101250.05;1713596;82;21128;-74
2021/06/19 11:21:32;;;;;;;5.42;4.05;;;;;;;20.85;100.00;101251.02;1733454;82;20990;-75
2021/06/19 11:24:07;;;;;;;4.33;3.60;;;;;;;20.87;100.00;101251.69;1733403;82;20966;-71
2021/06/19 11:27:01;;;;;;;6.55;3.60;;;;;;;20.90;100.00;101251.38;1733218;82;21533;-71